sensor_id;sensor_type;location;lat;lon;timestamp;pressure;altitude;pressure_sealevel;temperature;humidity
19259;BME280;9763;48.780;9.212;2023-03-14T00:01:11;96796.34;;;12.94;82.92
19259;BME280;9763;48.780;9.212;2023-03-14T00:04:35;96788.50;;;12.94;82.90
19259;BME280;9763;48.780;9.212;2023-03-14T00:07:59;96778.84;;;12.94;82.87
19259;BME280;9763;48.780;9.212;2023-03-14T00:11:23;96812.22;;;12.92;82.84
19259;BME280;9763;48.780;9.212;2023-03-14T00:14:47;96792.09;;;12.93;82.24
19259;BME280;9763;48.780;9.212;2023-03-14T00:18:12;96777.06;;;12.95;82.45
19259;BME280;9763;48.780;9.212;2023-03-14T00:21:35;96778.69;;;12.96;82.85
19259;BME280;9763;48.780;9.212;2023-03-14T00:24:59;96775.09;;;12.97;82.40
19259;BME280;9763;48.780;9.212;2023-03-14T00:28:23;96746.97;;;12.99;83.03
19259;BME280;9763;48.780;9.212;2023-03-14T00:31:47;96748.91;;;12.97;82.79
19259;BME280;9763;48.780;9.212;2023-03-14T00:35:12;96751.38;;;12.98;83.04
19259;BME280;9763;48.780;9.212;2023-03-14T00:38:36;96760.06;;;12.99;82.85
19259;BME280;9763;48.780;9.212;2023-03-14T00:42:00;96762.16;;;12.95;83.25
19259;BME280;9763;48.780;9.212;2023-03-14T00:45:24;96767.75;;;13.01;83.13
19259;BME280;9763;48.780;9.212;2023-03-14T00:48:48;96749.13;;;13.04;83.13
19259;BME280;9763;48.780;9.212;2023-03-14T00:52:13;96754.03;;;13.07;82.64
19259;BME280;9763;48.780;9.212;2023-03-14T00:55:38;96760.75;;;13.09;83.20
19259;BME280;9763;48.780;9.212;2023-03-14T00:59:02;96770.94;;;13.12;82.45
19259;BME280;9763;48.780;9.212;2023-03-14T01:02:26;96768.16;;;13.14;82.53
19259;BME280;9763;48.780;9.212;2023-03-14T01:05:51;96780.97;;;13.17;82.56
19259;BME280;9763;48.780;9.212;2023-03-14T01:09:16;96795.41;;;13.21;82.26
19259;BME280;9763;48.780;9.212;2023-03-14T01:12:40;96793.59;;;13.21;82.71
19259;BME280;9763;48.780;9.212;2023-03-14T01:16:06;96794.13;;;13.25;82.94
19259;BME280;9763;48.780;9.212;2023-03-14T01:19:32;96790.69;;;13.24;82.40
19259;BME280;9763;48.780;9.212;2023-03-14T01:22:55;96780.19;;;13.24;82.90
19259;BME280;9763;48.780;9.212;2023-03-14T01:26:23;96772.03;;;13.27;83.16
19259;BME280;9763;48.780;9.212;2023-03-14T01:29:47;96752.06;;;13.34;82.25
19259;BME280;9763;48.780;9.212;2023-03-14T01:33:12;96746.69;;;13.36;82.20
19259;BME280;9763;48.780;9.212;2023-03-14T01:36:39;96738.50;;;13.39;82.73
19259;BME280;9763;48.780;9.212;2023-03-14T01:40:04;96732.94;;;13.42;82.65
19259;BME280;9763;48.780;9.212;2023-03-14T01:43:30;96715.41;;;13.43;82.19
19259;BME280;9763;48.780;9.212;2023-03-14T01:46:54;96710.66;;;13.38;81.79
19259;BME280;9763;48.780;9.212;2023-03-14T01:50:18;96691.28;;;13.31;82.08
19259;BME280;9763;48.780;9.212;2023-03-14T01:53:43;96694.41;;;13.26;81.89
19259;BME280;9763;48.780;9.212;2023-03-14T01:57:12;96689.81;;;13.28;82.68
19259;BME280;9763;48.780;9.212;2023-03-14T02:00:38;96689.16;;;13.26;82.08
19259;BME280;9763;48.780;9.212;2023-03-14T02:04:05;96686.19;;;13.21;81.91
19259;BME280;9763;48.780;9.212;2023-03-14T02:07:38;96691.59;;;13.20;82.49
19259;BME280;9763;48.780;9.212;2023-03-14T02:11:12;96686.66;;;13.17;81.85
19259;BME280;9763;48.780;9.212;2023-03-14T02:14:58;96690.28;;;13.16;82.21
19259;BME280;9763;48.780;9.212;2023-03-14T02:18:39;96667.44;;;13.00;82.08
19259;BME280;9763;48.780;9.212;2023-03-14T02:22:22;96690.03;;;13.09;82.03
19259;BME280;9763;48.780;9.212;2023-03-14T02:25:57;96684.13;;;13.07;82.29
19259;BME280;9763;48.780;9.212;2023-03-14T02:29:24;96654.03;;;13.03;81.80
19259;BME280;9763;48.780;9.212;2023-03-14T02:32:52;96659.59;;;13.08;81.99
19259;BME280;9763;48.780;9.212;2023-03-14T02:36:18;96637.66;;;13.01;81.70
19259;BME280;9763;48.780;9.212;2023-03-14T02:39:45;96647.97;;;13.03;82.42
19259;BME280;9763;48.780;9.212;2023-03-14T02:43:12;96650.88;;;12.99;81.60
19259;BME280;9763;48.780;9.212;2023-03-14T02:46:42;96641.69;;;12.95;82.29
19259;BME280;9763;48.780;9.212;2023-03-14T02:50:11;96623.88;;;12.91;81.80
19259;BME280;9763;48.780;9.212;2023-03-14T02:53:37;96620.44;;;12.90;82.85
19259;BME280;9763;48.780;9.212;2023-03-14T02:57:05;96613.19;;;12.92;82.07
19259;BME280;9763;48.780;9.212;2023-03-14T03:00:29;96616.84;;;12.91;82.19
19259;BME280;9763;48.780;9.212;2023-03-14T03:03:55;96597.16;;;12.87;81.77
19259;BME280;9763;48.780;9.212;2023-03-14T03:07:19;96587.00;;;12.84;82.23
19259;BME280;9763;48.780;9.212;2023-03-14T03:10:43;96602.03;;;12.82;81.88
19259;BME280;9763;48.780;9.212;2023-03-14T03:14:08;96590.44;;;12.77;82.15
19259;BME280;9763;48.780;9.212;2023-03-14T03:17:31;96574.88;;;12.75;81.70
19259;BME280;9763;48.780;9.212;2023-03-14T03:21:00;96563.72;;;12.73;81.86
19259;BME280;9763;48.780;9.212;2023-03-14T03:24:24;96556.69;;;12.74;82.13
19259;BME280;9763;48.780;9.212;2023-03-14T03:27:49;96572.25;;;12.75;82.20
19259;BME280;9763;48.780;9.212;2023-03-14T03:31:14;96581.09;;;12.74;82.01
19259;BME280;9763;48.780;9.212;2023-03-14T03:34:38;96564.72;;;12.72;81.39
19259;BME280;9763;48.780;9.212;2023-03-14T03:38:03;96554.41;;;12.71;82.11
19259;BME280;9763;48.780;9.212;2023-03-14T03:41:27;96562.25;;;12.71;81.44
19259;BME280;9763;48.780;9.212;2023-03-14T03:44:50;96550.13;;;12.70;81.65
19259;BME280;9763;48.780;9.212;2023-03-14T03:48:14;96547.66;;;12.68;80.91
19259;BME280;9763;48.780;9.212;2023-03-14T03:51:39;96539.63;;;12.53;81.52
19259;BME280;9763;48.780;9.212;2023-03-14T03:55:06;96540.78;;;12.59;80.93
19259;BME280;9763;48.780;9.212;2023-03-14T03:58:30;96527.22;;;12.55;80.15
19259;BME280;9763;48.780;9.212;2023-03-14T04:01:53;96545.00;;;12.52;80.49
19259;BME280;9763;48.780;9.212;2023-03-14T04:05:17;96539.13;;;12.50;81.22
19259;BME280;9763;48.780;9.212;2023-03-14T04:08:58;96546.44;;;12.46;81.25
19259;BME280;9763;48.780;9.212;2023-03-14T04:12:52;96541.56;;;12.43;80.81
19259;BME280;9763;48.780;9.212;2023-03-14T04:16:20;96523.41;;;12.42;80.75
19259;BME280;9763;48.780;9.212;2023-03-14T04:19:47;96532.22;;;12.41;81.25
19259;BME280;9763;48.780;9.212;2023-03-14T04:23:14;96535.81;;;12.40;80.96
19259;BME280;9763;48.780;9.212;2023-03-14T04:26:39;96536.63;;;12.40;80.56
19259;BME280;9763;48.780;9.212;2023-03-14T04:30:08;96539.25;;;12.40;80.94
19259;BME280;9763;48.780;9.212;2023-03-14T04:34:01;96535.00;;;12.39;80.40
19259;BME280;9763;48.780;9.212;2023-03-14T04:37:36;96530.72;;;12.38;81.25
19259;BME280;9763;48.780;9.212;2023-03-14T04:41:03;96534.19;;;12.47;81.61
19259;BME280;9763;48.780;9.212;2023-03-14T04:44:28;96522.28;;;12.52;80.98
19259;BME280;9763;48.780;9.212;2023-03-14T04:47:53;96527.69;;;12.59;81.60
19259;BME280;9763;48.780;9.212;2023-03-14T04:51:18;96527.91;;;12.66;81.22
19259;BME280;9763;48.780;9.212;2023-03-14T04:54:42;96514.16;;;12.72;81.17
19259;BME280;9763;48.780;9.212;2023-03-14T04:58:06;96511.88;;;12.77;81.35
19259;BME280;9763;48.780;9.212;2023-03-14T05:01:30;96508.13;;;12.79;80.77
19259;BME280;9763;48.780;9.212;2023-03-14T05:05:14;96512.56;;;12.79;80.83
19259;BME280;9763;48.780;9.212;2023-03-14T05:09:00;96503.88;;;12.78;80.54
19259;BME280;9763;48.780;9.212;2023-03-14T05:12:55;96500.59;;;12.76;80.69
19259;BME280;9763;48.780;9.212;2023-03-14T05:16:48;96499.94;;;12.74;80.39
19259;BME280;9763;48.780;9.212;2023-03-14T05:20:36;96493.06;;;12.73;80.54
19259;BME280;9763;48.780;9.212;2023-03-14T05:24:15;96488.66;;;12.74;81.06
19259;BME280;9763;48.780;9.212;2023-03-14T05:27:57;96497.97;;;12.76;80.46
19259;BME280;9763;48.780;9.212;2023-03-14T05:31:34;96490.28;;;12.75;80.14
19259;BME280;9763;48.780;9.212;2023-03-14T05:35:16;96496.50;;;12.74;80.42
19259;BME280;9763;48.780;9.212;2023-03-14T05:38:51;96486.53;;;12.77;80.75
19259;BME280;9763;48.780;9.212;2023-03-14T05:42:47;96469.34;;;12.83;80.94
19259;BME280;9763;48.780;9.212;2023-03-14T05:46:29;96474.59;;;12.83;80.38
19259;BME280;9763;48.780;9.212;2023-03-14T05:50:05;96473.91;;;12.81;80.33
19259;BME280;9763;48.780;9.212;2023-03-14T05:53:48;96468.22;;;12.77;80.48
19259;BME280;9763;48.780;9.212;2023-03-14T05:57:32;96467.38;;;12.77;80.10
19259;BME280;9763;48.780;9.212;2023-03-14T06:01:16;96463.94;;;12.76;80.82
19259;BME280;9763;48.780;9.212;2023-03-14T06:04:56;96468.22;;;12.77;80.35
19259;BME280;9763;48.780;9.212;2023-03-14T06:08:20;96472.47;;;12.78;80.13
19259;BME280;9763;48.780;9.212;2023-03-14T06:11:43;96479.00;;;12.82;80.04
19259;BME280;9763;48.780;9.212;2023-03-14T06:15:10;96474.44;;;12.84;79.70
19259;BME280;9763;48.780;9.212;2023-03-14T06:18:35;96473.44;;;12.85;79.82
19259;BME280;9763;48.780;9.212;2023-03-14T06:22:01;96479.03;;;12.90;79.68
19259;BME280;9763;48.780;9.212;2023-03-14T06:25:27;96480.69;;;12.91;80.19
19259;BME280;9763;48.780;9.212;2023-03-14T06:28:51;96479.66;;;12.92;79.67
19259;BME280;9763;48.780;9.212;2023-03-14T06:32:17;96481.97;;;12.95;79.67
19259;BME280;9763;48.780;9.212;2023-03-14T06:35:42;96478.88;;;13.00;79.56
19259;BME280;9763;48.780;9.212;2023-03-14T06:39:06;96470.03;;;13.09;79.57
19259;BME280;9763;48.780;9.212;2023-03-14T06:42:34;96465.78;;;13.16;80.03
19259;BME280;9763;48.780;9.212;2023-03-14T06:45:58;96464.81;;;13.17;80.02
19259;BME280;9763;48.780;9.212;2023-03-14T06:49:24;96456.13;;;13.17;79.87
19259;BME280;9763;48.780;9.212;2023-03-14T06:52:50;96455.31;;;13.16;79.74
19259;BME280;9763;48.780;9.212;2023-03-14T06:56:18;96453.72;;;13.15;79.15
19259;BME280;9763;48.780;9.212;2023-03-14T06:59:43;96462.03;;;13.19;79.59
19259;BME280;9763;48.780;9.212;2023-03-14T07:03:06;96461.25;;;13.26;79.92
19259;BME280;9763;48.780;9.212;2023-03-14T07:06:36;96454.50;;;13.48;79.88
19259;BME280;9763;48.780;9.212;2023-03-14T07:10:02;96461.50;;;13.72;80.11
19259;BME280;9763;48.780;9.212;2023-03-14T07:13:26;96464.91;;;13.81;79.45
19259;BME280;9763;48.780;9.212;2023-03-14T07:16:55;96464.91;;;13.81;78.87
19259;BME280;9763;48.780;9.212;2023-03-14T07:20:19;96457.88;;;13.81;79.11
19259;BME280;9763;48.780;9.212;2023-03-14T07:23:45;96469.50;;;13.87;78.54
19259;BME280;9763;48.780;9.212;2023-03-14T07:27:09;96468.81;;;13.93;79.02
19259;BME280;9763;48.780;9.212;2023-03-14T07:30:33;96466.97;;;14.01;78.43
19259;BME280;9763;48.780;9.212;2023-03-14T07:34:00;96469.44;;;14.03;77.82
19259;BME280;9763;48.780;9.212;2023-03-14T07:37:29;96471.25;;;14.02;77.02
19259;BME280;9763;48.780;9.212;2023-03-14T07:40:59;96480.09;;;14.01;77.57
19259;BME280;9763;48.780;9.212;2023-03-14T07:44:26;96484.53;;;14.01;77.19
19259;BME280;9763;48.780;9.212;2023-03-14T07:47:50;96482.56;;;14.03;76.63
19259;BME280;9763;48.780;9.212;2023-03-14T07:51:13;96482.06;;;14.07;76.91
19259;BME280;9763;48.780;9.212;2023-03-14T07:54:37;96474.16;;;14.16;77.49
19259;BME280;9763;48.780;9.212;2023-03-14T07:58:02;96473.75;;;14.43;76.80
19259;BME280;9763;48.780;9.212;2023-03-14T08:01:26;96463.25;;;15.42;77.58
19259;BME280;9763;48.780;9.212;2023-03-14T08:04:50;96464.47;;;16.93;79.29
19259;BME280;9763;48.780;9.212;2023-03-14T08:08:14;96464.16;;;18.02;77.98
19259;BME280;9763;48.780;9.212;2023-03-14T08:11:37;96453.47;;;19.44;76.94
19259;BME280;9763;48.780;9.212;2023-03-14T08:15:03;96450.84;;;20.62;74.03
19259;BME280;9763;48.780;9.212;2023-03-14T08:18:27;96453.84;;;21.73;72.66
19259;BME280;9763;48.780;9.212;2023-03-14T08:21:50;96465.78;;;21.82;69.40
19259;BME280;9763;48.780;9.212;2023-03-14T08:25:14;96462.66;;;21.67;68.28
19259;BME280;9763;48.780;9.212;2023-03-14T08:28:38;96442.41;;;21.47;69.02
19259;BME280;9763;48.780;9.212;2023-03-14T08:32:04;96452.31;;;21.83;67.85
19259;BME280;9763;48.780;9.212;2023-03-14T08:35:27;96441.56;;;22.51;67.24
19259;BME280;9763;48.780;9.212;2023-03-14T08:38:51;96421.84;;;23.72;66.68
19259;BME280;9763;48.780;9.212;2023-03-14T08:42:15;96426.66;;;25.13;65.26
19259;BME280;9763;48.780;9.212;2023-03-14T08:45:38;96423.25;;;25.80;58.91
19259;BME280;9763;48.780;9.212;2023-03-14T08:49:03;96413.00;;;25.27;57.86
19259;BME280;9763;48.780;9.212;2023-03-14T08:52:27;96430.88;;;25.09;58.27
19259;BME280;9763;48.780;9.212;2023-03-14T08:55:52;96425.00;;;25.58;58.99
19259;BME280;9763;48.780;9.212;2023-03-14T08:59:17;96434.38;;;26.10;57.60
19259;BME280;9763;48.780;9.212;2023-03-14T09:02:40;96441.09;;;26.51;56.47
19259;BME280;9763;48.780;9.212;2023-03-14T09:06:09;96455.59;;;26.77;53.22
19259;BME280;9763;48.780;9.212;2023-03-14T09:09:33;96462.09;;;26.04;52.79
19259;BME280;9763;48.780;9.212;2023-03-14T09:12:56;96464.72;;;25.21;54.97
19259;BME280;9763;48.780;9.212;2023-03-14T09:16:21;96485.22;;;25.03;57.60
19259;BME280;9763;48.780;9.212;2023-03-14T09:19:44;96487.72;;;25.22;57.98
19259;BME280;9763;48.780;9.212;2023-03-14T09:23:09;96480.91;;;25.93;57.27
19259;BME280;9763;48.780;9.212;2023-03-14T09:26:33;96494.66;;;26.35;56.28
19259;BME280;9763;48.780;9.212;2023-03-14T09:29:57;96501.59;;;26.74;55.06
19259;BME280;9763;48.780;9.212;2023-03-14T09:33:20;96507.38;;;27.05;54.82
19259;BME280;9763;48.780;9.212;2023-03-14T09:36:44;96505.69;;;26.99;51.13
19259;BME280;9763;48.780;9.212;2023-03-14T09:40:13;96513.56;;;26.67;52.52
19259;BME280;9763;48.780;9.212;2023-03-14T09:43:39;96506.28;;;26.07;53.09
19259;BME280;9763;48.780;9.212;2023-03-14T09:47:09;96520.34;;;25.24;53.08
19259;BME280;9763;48.780;9.212;2023-03-14T09:50:40;96507.97;;;24.31;54.08
19259;BME280;9763;48.780;9.212;2023-03-14T09:54:09;96527.38;;;23.43;54.12
19259;BME280;9763;48.780;9.212;2023-03-14T09:57:43;96509.53;;;22.47;53.14
19259;BME280;9763;48.780;9.212;2023-03-14T10:01:15;96526.81;;;21.64;54.24
19259;BME280;9763;48.780;9.212;2023-03-14T10:04:41;96505.91;;;21.11;52.33
19259;BME280;9763;48.780;9.212;2023-03-14T10:08:09;96525.75;;;20.95;54.10
19259;BME280;9763;48.780;9.212;2023-03-14T10:11:33;96515.47;;;21.50;56.06
19259;BME280;9763;48.780;9.212;2023-03-14T10:15:04;96514.25;;;22.27;56.46
19259;BME280;9763;48.780;9.212;2023-03-14T10:18:30;96513.91;;;23.56;56.48
19259;BME280;9763;48.780;9.212;2023-03-14T10:21:56;96492.31;;;24.46;52.84
19259;BME280;9763;48.780;9.212;2023-03-14T10:25:27;96487.41;;;25.52;54.47
19259;BME280;9763;48.780;9.212;2023-03-14T10:28:53;96481.53;;;26.16;53.31
19259;BME280;9763;48.780;9.212;2023-03-14T10:32:23;96487.16;;;25.65;47.39
19259;BME280;9763;48.780;9.212;2023-03-14T10:35:56;96463.31;;;24.50;48.68
19259;BME280;9763;48.780;9.212;2023-03-14T10:39:38;96494.03;;;23.41;50.23
19259;BME280;9763;48.780;9.212;2023-03-14T10:43:11;96483.81;;;22.59;51.04
19259;BME280;9763;48.780;9.212;2023-03-14T10:46:36;96487.19;;;22.12;51.25
19259;BME280;9763;48.780;9.212;2023-03-14T10:50:28;96490.41;;;21.71;52.41
19259;BME280;9763;48.780;9.212;2023-03-14T10:54:00;96502.06;;;21.38;54.03
19259;BME280;9763;48.780;9.212;2023-03-14T10:57:24;96486.19;;;20.94;52.61
19259;BME280;9763;48.780;9.212;2023-03-14T11:00:57;96492.91;;;20.32;52.90
19259;BME280;9763;48.780;9.212;2023-03-14T11:04:43;96503.38;;;19.74;54.17
19259;BME280;9763;48.780;9.212;2023-03-14T11:08:19;96516.97;;;19.31;55.43
19259;BME280;9763;48.780;9.212;2023-03-14T11:11:47;96517.25;;;18.82;55.72
19259;BME280;9763;48.780;9.212;2023-03-14T11:15:17;96532.44;;;18.39;56.42
19259;BME280;9763;48.780;9.212;2023-03-14T11:18:58;96552.75;;;18.04;56.87
19259;BME280;9763;48.780;9.212;2023-03-14T11:22:30;96547.88;;;17.80;57.28
19259;BME280;9763;48.780;9.212;2023-03-14T11:26:06;96560.94;;;17.45;57.22
19259;BME280;9763;48.780;9.212;2023-03-14T11:29:39;96551.72;;;16.99;59.12
19259;BME280;9763;48.780;9.212;2023-03-14T11:33:11;96558.63;;;16.55;61.03
19259;BME280;9763;48.780;9.212;2023-03-14T11:36:39;96552.28;;;16.20;62.60
19259;BME280;9763;48.780;9.212;2023-03-14T11:40:14;96553.81;;;16.00;64.83
19259;BME280;9763;48.780;9.212;2023-03-14T11:43:40;96554.50;;;15.79;65.21
19259;BME280;9763;48.780;9.212;2023-03-14T11:47:10;96573.13;;;15.70;66.34
19259;BME280;9763;48.780;9.212;2023-03-14T11:50:38;96573.84;;;15.64;68.41
19259;BME280;9763;48.780;9.212;2023-03-14T11:54:16;96595.44;;;15.51;68.70
19259;BME280;9763;48.780;9.212;2023-03-14T11:57:42;96590.25;;;15.43;69.12
19259;BME280;9763;48.780;9.212;2023-03-14T12:01:11;96599.81;;;15.36;69.54
19259;BME280;9763;48.780;9.212;2023-03-14T12:04:51;96602.34;;;15.29;70.08
19259;BME280;9763;48.780;9.212;2023-03-14T12:08:45;96620.66;;;15.37;71.77
19259;BME280;9763;48.780;9.212;2023-03-14T12:12:15;96613.19;;;15.57;71.54
19259;BME280;9763;48.780;9.212;2023-03-14T12:15:47;96622.34;;;15.84;71.77
19259;BME280;9763;48.780;9.212;2023-03-14T12:19:29;96619.00;;;16.13;69.64
19259;BME280;9763;48.780;9.212;2023-03-14T12:22:56;96660.22;;;16.20;67.11
19259;BME280;9763;48.780;9.212;2023-03-14T12:26:27;96662.00;;;16.05;66.66
19259;BME280;9763;48.780;9.212;2023-03-14T12:30:00;96663.72;;;16.50;66.17
19259;BME280;9763;48.780;9.212;2023-03-14T12:33:30;96667.88;;;17.12;61.36
19259;BME280;9763;48.780;9.212;2023-03-14T12:37:06;96668.66;;;17.27;59.58
19259;BME280;9763;48.780;9.212;2023-03-14T12:40:39;96678.75;;;17.23;58.50
19259;BME280;9763;48.780;9.212;2023-03-14T12:44:43;96729.81;;;17.52;53.16
19259;BME280;9763;48.780;9.212;2023-03-14T12:48:15;96714.63;;;17.69;54.27
19259;BME280;9763;48.780;9.212;2023-03-14T12:51:42;96720.34;;;18.08;52.36
19259;BME280;9763;48.780;9.212;2023-03-14T12:55:13;96759.31;;;18.27;48.71
19259;BME280;9763;48.780;9.212;2023-03-14T12:58:44;96765.09;;;18.38;48.19
19259;BME280;9763;48.780;9.212;2023-03-14T13:02:22;96772.06;;;18.03;48.30
19259;BME280;9763;48.780;9.212;2023-03-14T13:05:53;96779.06;;;17.74;48.26
19259;BME280;9763;48.780;9.212;2023-03-14T13:09:45;96800.44;;;17.50;47.83
19259;BME280;9763;48.780;9.212;2023-03-14T13:13:20;96850.94;;;17.09;50.29
19259;BME280;9763;48.780;9.212;2023-03-14T13:16:45;96839.16;;;16.82;50.33
19259;BME280;9763;48.780;9.212;2023-03-14T13:20:15;96799.31;;;16.32;49.75
19259;BME280;9763;48.780;9.212;2023-03-14T13:23:41;96889.94;;;16.45;49.36
19259;BME280;9763;48.780;9.212;2023-03-14T13:27:20;96888.66;;;16.41;49.14
19259;BME280;9763;48.780;9.212;2023-03-14T13:30:49;96896.31;;;16.20;50.53
19259;BME280;9763;48.780;9.212;2023-03-14T13:34:13;96924.50;;;16.11;51.25
19259;BME280;9763;48.780;9.212;2023-03-14T13:37:39;96943.16;;;15.94;49.19
19259;BME280;9763;48.780;9.212;2023-03-14T13:41:06;96957.34;;;15.76;51.31
19259;BME280;9763;48.780;9.212;2023-03-14T13:44:33;96961.16;;;15.58;48.46
19259;BME280;9763;48.780;9.212;2023-03-14T13:47:59;96974.25;;;15.49;47.87
19259;BME280;9763;48.780;9.212;2023-03-14T13:51:23;96983.97;;;15.41;48.05
19259;BME280;9763;48.780;9.212;2023-03-14T13:54:47;96997.44;;;15.38;49.00
19259;BME280;9763;48.780;9.212;2023-03-14T13:58:20;97002.22;;;15.26;47.71
19259;BME280;9763;48.780;9.212;2023-03-14T14:01:47;97017.81;;;15.20;47.59
19259;BME280;9763;48.780;9.212;2023-03-14T14:05:12;97001.50;;;14.92;46.53
19259;BME280;9763;48.780;9.212;2023-03-14T14:08:39;97052.88;;;14.86;47.48
19259;BME280;9763;48.780;9.212;2023-03-14T14:12:06;97032.97;;;14.67;47.69
19259;BME280;9763;48.780;9.212;2023-03-14T14:15:43;97078.91;;;14.63;46.29
19259;BME280;9763;48.780;9.212;2023-03-14T14:19:07;97081.66;;;14.54;46.91
19259;BME280;9763;48.780;9.212;2023-03-14T14:22:33;97074.56;;;14.46;45.85
19259;BME280;9763;48.780;9.212;2023-03-14T14:25:58;97096.25;;;14.30;44.99
19259;BME280;9763;48.780;9.212;2023-03-14T14:29:27;97111.34;;;14.28;45.91
19259;BME280;9763;48.780;9.212;2023-03-14T14:32:51;97109.19;;;14.24;45.16
19259;BME280;9763;48.780;9.212;2023-03-14T14:36:20;97102.75;;;14.18;46.24
19259;BME280;9763;48.780;9.212;2023-03-14T14:39:48;97108.16;;;14.17;46.06
19259;BME280;9763;48.780;9.212;2023-03-14T14:43:18;97136.34;;;14.15;46.42
19259;BME280;9763;48.780;9.212;2023-03-14T14:46:43;97136.47;;;14.13;45.75
19259;BME280;9763;48.780;9.212;2023-03-14T14:50:28;97147.16;;;14.12;46.61
19259;BME280;9763;48.780;9.212;2023-03-14T14:54:11;97132.41;;;13.93;45.08
19259;BME280;9763;48.780;9.212;2023-03-14T14:57:40;97145.22;;;13.96;45.14
19259;BME280;9763;48.780;9.212;2023-03-14T15:01:10;97121.38;;;13.89;44.51
19259;BME280;9763;48.780;9.212;2023-03-14T15:04:35;97157.91;;;13.83;45.08
19259;BME280;9763;48.780;9.212;2023-03-14T15:07:59;97149.06;;;13.84;45.86
19259;BME280;9763;48.780;9.212;2023-03-14T15:11:25;97169.75;;;13.87;46.90
19259;BME280;9763;48.780;9.212;2023-03-14T15:14:50;97163.53;;;13.88;47.71
19259;BME280;9763;48.780;9.212;2023-03-14T15:18:16;97183.91;;;13.94;46.98
19259;BME280;9763;48.780;9.212;2023-03-14T15:21:40;97170.78;;;13.94;46.60
19259;BME280;9763;48.780;9.212;2023-03-14T15:25:04;97169.81;;;13.95;45.97
19259;BME280;9763;48.780;9.212;2023-03-14T15:28:29;97192.34;;;14.05;46.57
19259;BME280;9763;48.780;9.212;2023-03-14T15:31:54;97183.66;;;14.05;45.52
19259;BME280;9763;48.780;9.212;2023-03-14T15:35:18;97197.69;;;13.96;46.68
19259;BME280;9763;48.780;9.212;2023-03-14T15:38:42;97212.59;;;13.95;47.32
19259;BME280;9763;48.780;9.212;2023-03-14T15:42:06;97196.19;;;13.93;46.36
19259;BME280;9763;48.780;9.212;2023-03-14T15:45:30;97183.38;;;13.73;46.31
19259;BME280;9763;48.780;9.212;2023-03-14T15:48:55;97202.72;;;13.72;46.48
19259;BME280;9763;48.780;9.212;2023-03-14T15:52:19;97228.84;;;13.63;48.14
19259;BME280;9763;48.780;9.212;2023-03-14T15:55:43;97222.78;;;13.63;48.39
19259;BME280;9763;48.780;9.212;2023-03-14T15:59:07;97237.38;;;13.65;48.95
19259;BME280;9763;48.780;9.212;2023-03-14T16:02:30;97227.56;;;13.67;46.13
19259;BME280;9763;48.780;9.212;2023-03-14T16:05:56;97255.28;;;13.70;47.65
19259;BME280;9763;48.780;9.212;2023-03-14T16:09:20;97247.13;;;13.73;47.77
19259;BME280;9763;48.780;9.212;2023-03-14T16:12:46;97240.75;;;13.58;47.12
19259;BME280;9763;48.780;9.212;2023-03-14T16:16:10;97274.63;;;13.69;48.63
19259;BME280;9763;48.780;9.212;2023-03-14T16:19:35;97266.22;;;13.65;48.82
19259;BME280;9763;48.780;9.212;2023-03-14T16:23:02;97270.81;;;13.63;49.85
19259;BME280;9763;48.780;9.212;2023-03-14T16:26:26;97271.91;;;13.61;49.10
19259;BME280;9763;48.780;9.212;2023-03-14T16:29:50;97266.56;;;13.53;49.84
19259;BME280;9763;48.780;9.212;2023-03-14T16:33:14;97270.75;;;13.46;51.20
19259;BME280;9763;48.780;9.212;2023-03-14T16:36:38;97278.66;;;13.36;51.38
19259;BME280;9763;48.780;9.212;2023-03-14T16:40:04;97276.75;;;13.28;51.67
19259;BME280;9763;48.780;9.212;2023-03-14T16:43:34;97282.47;;;13.14;51.80
19259;BME280;9763;48.780;9.212;2023-03-14T16:46:59;97289.47;;;13.14;52.55
19259;BME280;9763;48.780;9.212;2023-03-14T16:50:23;97295.00;;;13.11;52.13
19259;BME280;9763;48.780;9.212;2023-03-14T16:53:47;97291.97;;;13.06;52.81
19259;BME280;9763;48.780;9.212;2023-03-14T16:57:13;97296.81;;;13.01;53.06
19259;BME280;9763;48.780;9.212;2023-03-14T17:00:37;97306.59;;;12.98;53.22
19259;BME280;9763;48.780;9.212;2023-03-14T17:04:01;97323.16;;;12.99;54.02
19259;BME280;9763;48.780;9.212;2023-03-14T17:07:25;97321.09;;;13.03;53.91
19259;BME280;9763;48.780;9.212;2023-03-14T17:10:50;97328.13;;;13.02;53.91
19259;BME280;9763;48.780;9.212;2023-03-14T17:14:15;97331.84;;;12.99;54.68
19259;BME280;9763;48.780;9.212;2023-03-14T17:17:39;97342.19;;;13.01;54.76
19259;BME280;9763;48.780;9.212;2023-03-14T17:21:04;97344.09;;;12.99;54.99
19259;BME280;9763;48.780;9.212;2023-03-14T17:24:28;97352.78;;;12.99;54.84
19259;BME280;9763;48.780;9.212;2023-03-14T17:27:52;97365.88;;;12.99;54.42
19259;BME280;9763;48.780;9.212;2023-03-14T17:31:18;97378.44;;;12.96;54.97
19259;BME280;9763;48.780;9.212;2023-03-14T17:34:44;97393.47;;;12.84;54.21
19259;BME280;9763;48.780;9.212;2023-03-14T17:38:08;97424.72;;;12.57;55.11
19259;BME280;9763;48.780;9.212;2023-03-14T17:41:32;97404.72;;;12.27;57.42
19259;BME280;9763;48.780;9.212;2023-03-14T17:44:56;97410.06;;;12.06;58.54
19259;BME280;9763;48.780;9.212;2023-03-14T17:48:21;97414.00;;;11.91;59.90
19259;BME280;9763;48.780;9.212;2023-03-14T17:51:45;97427.41;;;11.77;60.05
19259;BME280;9763;48.780;9.212;2023-03-14T17:55:09;97426.28;;;11.70;60.41
19259;BME280;9763;48.780;9.212;2023-03-14T17:58:34;97440.31;;;11.69;60.57
19259;BME280;9763;48.780;9.212;2023-03-14T18:01:59;97448.25;;;11.67;60.13
19259;BME280;9763;48.780;9.212;2023-03-14T18:05:24;97466.81;;;11.64;60.13
19259;BME280;9763;48.780;9.212;2023-03-14T18:08:49;97480.59;;;11.66;60.61
19259;BME280;9763;48.780;9.212;2023-03-14T18:12:13;97499.00;;;11.65;59.91
19259;BME280;9763;48.780;9.212;2023-03-14T18:15:37;97518.38;;;11.62;60.27
19259;BME280;9763;48.780;9.212;2023-03-14T18:19:01;97522.13;;;11.48;60.00
19259;BME280;9763;48.780;9.212;2023-03-14T18:22:26;97503.66;;;11.19;61.61
19259;BME280;9763;48.780;9.212;2023-03-14T18:25:50;97512.19;;;10.90;63.11
19259;BME280;9763;48.780;9.212;2023-03-14T18:29:14;97510.47;;;10.68;64.34
19259;BME280;9763;48.780;9.212;2023-03-14T18:32:38;97509.34;;;10.50;66.07
19259;BME280;9763;48.780;9.212;2023-03-14T18:36:03;97505.22;;;10.36;66.69